createdAt,value
2022-09-23T00:02:21.713Z,1.90
2022-09-23T00:04:50.457Z,2.07
2022-09-23T00:07:17.891Z,2.00
2022-09-23T00:09:45.278Z,2.00
2022-09-23T00:12:12.676Z,2.13
2022-09-23T00:14:40.176Z,2.30
2022-09-23T00:17:07.852Z,1.90
2022-09-23T00:19:35.320Z,2.00
2022-09-23T00:22:04.173Z,2.60
2022-09-23T00:24:32.444Z,2.07
2022-09-23T00:26:59.900Z,2.07
2022-09-23T00:29:27.484Z,2.30
2022-09-23T00:31:54.879Z,2.23
2022-09-23T00:34:22.242Z,2.07
2022-09-23T00:36:49.653Z,2.13
2022-09-23T00:39:18.404Z,2.40
2022-09-23T00:41:45.821Z,2.40
2022-09-23T00:44:32.333Z,2.40
2022-09-23T00:46:59.788Z,2.10
2022-09-23T00:49:29.023Z,2.20
2022-09-23T00:52:00.075Z,2.00
2022-09-23T00:54:30.996Z,2.17
2022-09-23T00:56:58.758Z,2.33
2022-09-23T00:59:28.735Z,2.27
2022-09-23T01:01:57.733Z,2.10
2022-09-23T01:04:26.244Z,1.97
2022-09-23T01:06:53.651Z,2.03
2022-09-23T01:09:21.586Z,2.13
2022-09-23T01:11:52.182Z,2.33
2022-09-23T01:14:32.263Z,2.07
2022-09-23T01:17:04.892Z,2.20
2022-09-23T01:19:38.691Z,2.10
2022-09-23T01:22:10.735Z,2.03
2022-09-23T01:25:02.085Z,2.17
2022-09-23T01:27:47.286Z,2.27
2022-09-23T01:30:32.884Z,2.07
2022-09-23T01:33:11.172Z,2.23
2022-09-23T01:35:50.975Z,2.20
2022-09-23T01:38:24.931Z,2.10
2022-09-23T01:40:56.936Z,2.37
2022-09-23T01:43:27.147Z,2.20
2022-09-23T01:45:56.895Z,1.93
2022-09-23T01:48:28.767Z,2.03
2022-09-23T01:50:58.073Z,2.20
2022-09-23T01:53:29.027Z,2.23
2022-09-23T01:55:58.204Z,1.90
2022-09-23T01:58:27.792Z,2.50
2022-09-23T02:00:58.868Z,2.47
2022-09-23T02:03:29.673Z,1.97
2022-09-23T02:05:59.676Z,2.27
2022-09-23T02:08:29.384Z,2.20
2022-09-23T02:10:58.657Z,2.17
2022-09-23T02:13:30.114Z,2.00
2022-09-23T02:16:01.156Z,2.40
2022-09-23T02:18:31.268Z,2.33
2022-09-23T02:21:00.884Z,2.00
2022-09-23T02:23:30.943Z,2.40
2022-09-23T02:26:02.675Z,2.20
2022-09-23T02:28:32.943Z,2.13
2022-09-23T02:31:07.629Z,2.10
2022-09-23T02:33:37.679Z,2.30
2022-09-23T02:36:07.692Z,2.30
2022-09-23T02:38:39.195Z,2.20
2022-09-23T02:41:11.101Z,2.60
2022-09-23T02:43:43.706Z,2.00
2022-09-23T02:46:11.228Z,2.17
2022-09-23T02:48:41.656Z,2.30
2022-09-23T02:51:09.830Z,2.07
2022-09-23T02:53:37.362Z,2.23
2022-09-23T02:56:14.268Z,2.20
2022-09-23T02:58:41.797Z,2.17
2022-09-23T03:01:15.763Z,2.30
2022-09-23T03:03:47.855Z,2.20
2022-09-23T03:06:19.854Z,2.40
2022-09-23T03:08:50.703Z,2.30
2022-09-23T03:11:18.476Z,2.27
2022-09-23T03:13:53.034Z,2.00
2022-09-23T03:16:25.604Z,2.47
2022-09-23T03:18:56.909Z,2.10
2022-09-23T03:21:26.181Z,2.20
2022-09-23T03:23:54.486Z,2.40
2022-09-23T03:26:24.750Z,2.33
2022-09-23T03:28:52.908Z,2.17
2022-09-23T03:31:20.422Z,2.20
2022-09-23T03:33:49.047Z,2.30
2022-09-23T03:36:37.819Z,2.30
2022-09-23T03:39:07.207Z,2.40
2022-09-23T03:41:37.911Z,2.20
2022-09-23T03:44:07.424Z,2.30
2022-09-23T03:46:36.114Z,2.33
2022-09-23T03:49:09.458Z,2.20
2022-09-23T03:51:41.558Z,2.13
2022-09-23T03:54:11.859Z,2.17
2022-09-23T03:56:39.350Z,2.47
2022-09-23T03:59:06.743Z,2.20
2022-09-23T04:01:34.156Z,2.50
2022-09-23T04:04:01.815Z,2.40
2022-09-23T04:06:29.225Z,2.50
2022-09-23T04:08:59.327Z,2.40
2022-09-23T04:11:26.692Z,2.40
2022-09-23T04:13:54.115Z,1.93
2022-09-23T04:16:21.659Z,2.30
2022-09-23T04:18:49.651Z,2.30
2022-09-23T04:21:17.048Z,2.27
2022-09-23T04:23:45.907Z,2.50
2022-09-23T04:26:14.672Z,2.73
2022-09-23T04:28:42.159Z,2.60
2022-09-23T04:31:09.985Z,2.33
2022-09-23T04:33:37.835Z,2.30
2022-09-23T04:36:05.508Z,2.30
2022-09-23T04:38:32.883Z,2.50
2022-09-23T04:41:00.424Z,2.63
2022-09-23T04:43:29.184Z,2.53
2022-09-23T04:46:00.523Z,2.13
2022-09-23T04:48:27.944Z,2.30
2022-09-23T04:50:55.559Z,2.30
2022-09-23T04:53:23.285Z,2.30
2022-09-23T04:55:52.211Z,2.70
2022-09-23T04:58:20.521Z,2.40
2022-09-23T05:00:49.427Z,2.50
2022-09-23T05:03:17.053Z,2.33
2022-09-23T05:05:44.612Z,2.40
2022-09-23T05:08:11.985Z,2.60
2022-09-23T05:10:39.409Z,2.40
2022-09-23T05:13:06.807Z,2.77
2022-09-23T05:15:34.199Z,2.47
2022-09-23T05:18:02.972Z,2.83
2022-09-23T05:20:30.324Z,2.40
2022-09-23T05:22:57.718Z,2.70
2022-09-23T05:25:25.144Z,2.53
2022-09-23T05:27:52.615Z,3.17
2022-09-23T05:30:19.989Z,2.70
2022-09-23T05:32:47.364Z,2.67
2022-09-23T05:35:16.310Z,3.50
2022-09-23T05:37:43.723Z,3.00
2022-09-23T05:40:11.289Z,2.67
2022-09-23T05:42:38.699Z,3.20
2022-09-23T05:45:07.574Z,3.13
2022-09-23T05:47:34.986Z,5.37
2022-09-23T05:50:02.450Z,3.47
2022-09-23T05:52:31.453Z,4.17
2022-09-23T05:54:58.839Z,4.93
2022-09-23T05:57:26.478Z,4.20
2022-09-23T05:59:53.813Z,3.57
2022-09-23T06:02:21.369Z,7.07
2022-09-23T06:04:48.800Z,15.03
2022-09-23T06:07:16.136Z,29.57
2022-09-23T06:09:45.389Z,26.23
2022-09-23T06:12:14.431Z,18.07
2022-09-23T06:14:42.101Z,16.70
2022-09-23T06:17:09.462Z,14.47
2022-09-23T06:19:36.834Z,21.70
2022-09-23T06:22:04.264Z,27.43
2022-09-23T06:24:31.913Z,20.70
2022-09-23T06:27:01.323Z,12.73
2022-09-23T06:29:31.221Z,12.93
2022-09-23T06:31:59.684Z,21.93
2022-09-23T06:34:27.211Z,18.60
2022-09-23T06:36:55.538Z,13.87
2022-09-23T06:39:22.978Z,11.30
2022-09-23T06:41:50.403Z,10.00
2022-09-23T06:44:19.180Z,6.93
2022-09-23T06:46:46.659Z,5.90
2022-09-23T06:49:14.236Z,5.10
2022-09-23T06:51:41.837Z,4.03
2022-09-23T06:54:09.443Z,3.30
2022-09-23T06:56:39.526Z,3.67
2022-09-23T06:59:08.196Z,3.30
2022-09-23T07:01:37.019Z,3.37
2022-09-23T07:04:04.507Z,3.30
2022-09-23T07:06:32.006Z,3.37
2022-09-23T07:09:00.907Z,3.00
2022-09-23T07:11:28.288Z,5.17
2022-09-23T07:13:55.699Z,4.53
2022-09-23T07:16:23.164Z,4.90
2022-09-23T07:18:53.343Z,15.10
2022-09-23T07:21:20.888Z,12.33
2022-09-23T07:23:50.028Z,6.33
2022-09-23T07:26:18.012Z,7.20
2022-09-23T07:28:45.530Z,4.90
2022-09-23T07:31:17.157Z,3.90
2022-09-23T07:33:49.376Z,6.10
2022-09-23T07:36:19.139Z,13.17
2022-09-23T07:38:47.335Z,9.30
2022-09-23T07:41:15.946Z,5.37
2022-09-23T07:43:44.088Z,5.53
2022-09-23T07:46:14.165Z,5.00
2022-09-23T07:48:41.996Z,4.50
2022-09-23T07:51:09.593Z,4.47
2022-09-23T07:53:38.363Z,3.83
2022-09-23T07:56:06.868Z,4.10
2022-09-23T07:58:35.273Z,3.73
2022-09-23T08:01:03.764Z,10.83
2022-09-23T08:03:31.108Z,3.73
2022-09-23T08:06:05.182Z,5.20
2022-09-23T08:08:32.807Z,4.40
2022-09-23T08:11:05.596Z,4.53
2022-09-23T08:13:33.031Z,5.90
2022-09-23T08:16:00.691Z,6.70
2022-09-23T08:18:28.253Z,3.60
2022-09-23T08:20:55.629Z,4.10
2022-09-23T08:23:23.090Z,4.00
2022-09-23T08:25:59.590Z,4.33
2022-09-23T08:28:28.986Z,4.00
2022-09-23T08:30:56.744Z,4.33
2022-09-23T08:33:24.587Z,6.47
2022-09-23T08:35:52.300Z,3.43
2022-09-23T08:38:19.692Z,4.13
2022-09-23T08:40:48.753Z,6.13
2022-09-23T08:43:21.843Z,3.97
2022-09-23T08:45:51.963Z,3.40
2022-09-23T08:48:23.286Z,2.70
2022-09-23T08:50:52.662Z,7.80
2022-09-23T08:53:24.452Z,3.27
2022-09-23T08:55:54.528Z,2.70
2022-09-23T08:58:29.795Z,3.70
2022-09-23T09:01:03.329Z,2.90
2022-09-23T09:03:33.368Z,3.17
2022-09-23T09:06:00.912Z,3.03
2022-09-23T09:08:31.620Z,3.40
2022-09-23T09:10:59.439Z,2.83
2022-09-23T09:13:31.012Z,2.90
2022-09-23T09:16:18.805Z,39.83
2022-09-23T09:18:55.420Z,3.40
2022-09-23T09:21:25.963Z,4.03
2022-09-23T09:23:55.016Z,3.10
2022-09-23T09:26:23.243Z,2.40
2022-09-23T09:28:54.767Z,2.40
2022-09-23T09:31:31.751Z,2.70
2022-09-23T09:34:02.018Z,2.60
2022-09-23T09:36:35.927Z,2.40
2022-09-23T09:39:03.446Z,2.67
2022-09-23T09:41:31.464Z,2.70
2022-09-23T09:44:00.681Z,2.60
2022-09-23T09:46:49.050Z,2.70
2022-09-23T09:49:23.027Z,2.80
2022-09-23T09:52:03.657Z,3.33
2022-09-23T09:54:31.122Z,2.90
2022-09-23T09:56:58.527Z,2.57
2022-09-23T09:59:28.283Z,2.30
2022-09-23T10:02:10.561Z,2.60
2022-09-23T10:04:39.397Z,2.60
2022-09-23T10:07:08.004Z,2.57
2022-09-23T10:09:36.128Z,2.70
2022-09-23T10:12:05.518Z,3.40
2022-09-23T10:14:32.941Z,3.40
2022-09-23T10:17:05.479Z,3.60
2022-09-23T10:19:33.473Z,3.30
2022-09-23T10:22:04.831Z,2.40
2022-09-23T10:24:33.589Z,2.47
2022-09-23T10:27:02.811Z,7.40
2022-09-23T10:29:31.551Z,2.40
2022-09-23T10:32:19.831Z,4.90
2022-09-23T10:34:50.390Z,2.77
2022-09-23T10:37:22.481Z,2.40
2022-09-23T10:40:07.456Z,2.57
2022-09-23T10:43:00.540Z,2.30
2022-09-23T10:45:46.237Z,2.10
2022-09-23T10:48:18.729Z,2.13
2022-09-23T10:50:48.967Z,1.93
2022-09-23T10:53:22.803Z,2.40
2022-09-23T10:55:57.930Z,2.00
2022-09-23T10:58:43.291Z,2.10
2022-09-23T11:01:17.631Z,2.00
2022-09-23T11:03:54.180Z,16.20
2022-09-23T11:06:26.900Z,2.70
2022-09-23T11:09:00.047Z,2.10
2022-09-23T11:11:34.067Z,4.83
2022-09-23T11:14:07.433Z,1.87
2022-09-23T11:16:41.182Z,7.00
2022-09-23T11:19:22.265Z,7.83
2022-09-23T11:22:04.532Z,7.67
2022-09-23T11:24:50.179Z,3.83
2022-09-23T11:27:22.146Z,2.00
2022-09-23T11:30:01.188Z,2.33
2022-09-23T11:32:38.257Z,3.87
2022-09-23T11:35:15.112Z,1.73
2022-09-23T11:37:45.970Z,2.00
2022-09-23T11:40:18.977Z,1.83
2022-09-23T11:42:52.459Z,1.73
2022-09-23T11:45:23.388Z,2.20
2022-09-23T11:47:52.983Z,1.70
2022-09-23T11:50:25.737Z,2.17
2022-09-23T11:52:58.763Z,1.93
2022-09-23T11:55:32.320Z,2.00
2022-09-23T11:58:02.001Z,1.70
2022-09-23T12:00:32.450Z,2.00
2022-09-23T12:03:05.920Z,1.87
2022-09-23T12:05:35.622Z,1.70
2022-09-23T12:08:06.050Z,1.80
2022-09-23T12:10:41.612Z,1.90
2022-09-23T12:13:16.106Z,1.77
2022-09-23T12:15:50.448Z,1.40
2022-09-23T12:18:24.697Z,1.90
2022-09-23T12:21:00.278Z,2.00
2022-09-23T12:23:36.004Z,2.60
2022-09-23T12:26:06.692Z,4.10
2022-09-23T12:28:36.399Z,1.93
2022-09-23T12:31:05.426Z,2.20
2022-09-23T12:33:34.022Z,1.80
2022-09-23T12:36:03.549Z,1.90
2022-09-23T12:38:33.946Z,2.20
2022-09-23T12:41:01.959Z,1.73
2022-09-23T12:43:32.965Z,4.50
2022-09-23T12:46:16.084Z,2.40
2022-09-23T12:48:47.837Z,1.80
2022-09-23T12:51:24.487Z,1.80
2022-09-23T12:53:56.614Z,1.80
2022-09-23T12:56:26.394Z,2.50
2022-09-23T12:58:59.777Z,2.70
2022-09-23T13:01:27.705Z,5.70
2022-09-23T13:04:13.660Z,3.00
2022-09-23T13:06:42.034Z,1.70
2022-09-23T13:09:11.240Z,1.50
2022-09-23T13:11:41.371Z,1.90
2022-09-23T13:14:11.903Z,1.70
2022-09-23T13:16:43.506Z,2.10
2022-09-23T13:19:38.812Z,1.63
2022-09-23T13:22:10.967Z,1.50
2022-09-23T13:24:40.586Z,1.93
2022-09-23T13:27:14.045Z,2.50
2022-09-23T13:29:44.943Z,2.30
2022-09-23T13:32:14.931Z,1.50
2022-09-23T13:34:44.218Z,5.77
2022-09-23T13:37:22.162Z,1.83
2022-09-23T13:39:50.531Z,2.40
2022-09-23T13:42:21.748Z,3.30
2022-09-23T13:44:50.664Z,12.23
2022-09-23T13:47:18.053Z,3.33
2022-09-23T13:49:47.945Z,2.40
2022-09-23T13:52:25.077Z,1.80
2022-09-23T13:54:52.493Z,14.33
2022-09-23T13:57:26.433Z,3.07
2022-09-23T13:59:55.237Z,2.30
2022-09-23T14:02:25.759Z,2.27
2022-09-23T14:04:53.345Z,1.80
2022-09-23T14:07:20.986Z,1.90
2022-09-23T14:09:49.421Z,1.40
2022-09-23T14:12:21.885Z,1.60
2022-09-23T14:14:50.140Z,1.80
2022-09-23T14:17:20.087Z,1.60
2022-09-23T14:19:48.007Z,1.67
2022-09-23T14:22:23.374Z,1.90
2022-09-23T14:24:51.129Z,4.60
2022-09-23T14:27:19.615Z,19.23
2022-09-23T14:29:49.304Z,5.47
2022-09-23T14:32:18.908Z,3.00
2022-09-23T14:34:50.185Z,2.60
2022-09-23T14:37:35.776Z,2.10
2022-09-23T14:40:03.624Z,1.90
2022-09-23T14:42:32.540Z,1.70
2022-09-23T14:45:00.147Z,1.73
2022-09-23T14:47:27.597Z,1.70
2022-09-23T14:50:10.302Z,1.90
2022-09-23T14:52:37.929Z,1.77
2022-09-23T14:55:05.737Z,1.73
2022-09-23T14:57:33.103Z,1.93
2022-09-23T15:00:02.346Z,2.47
2022-09-23T15:02:32.533Z,4.30
2022-09-23T15:05:14.478Z,8.43
2022-09-23T15:07:42.685Z,8.90
2022-09-23T15:10:10.679Z,3.37
2022-09-23T15:12:38.194Z,1.90
2022-09-23T15:15:06.329Z,5.30
2022-09-23T15:17:35.190Z,5.60
2022-09-23T15:20:03.867Z,2.20
2022-09-23T15:22:33.367Z,1.87
2022-09-23T15:25:16.155Z,1.93
2022-09-23T15:27:55.993Z,1.87
2022-09-23T15:30:23.464Z,1.97
2022-09-23T15:32:50.863Z,1.87
2022-09-23T15:35:19.476Z,2.67
2022-09-23T15:37:49.606Z,4.37
2022-09-23T15:40:20.601Z,6.07
2022-09-23T15:42:52.271Z,5.30
2022-09-23T15:45:20.917Z,4.10
2022-09-23T15:47:49.105Z,2.07
2022-09-23T15:50:16.905Z,1.70
2022-09-23T15:52:45.712Z,1.90
2022-09-23T15:55:18.300Z,1.90
2022-09-23T15:57:45.660Z,2.30
2022-09-23T16:00:14.767Z,1.70
2022-09-23T16:02:43.126Z,1.80
2022-09-23T16:05:16.680Z,1.87
2022-09-23T16:07:44.058Z,1.93
2022-09-23T16:10:11.495Z,4.67
2022-09-23T16:12:40.237Z,4.50
2022-09-23T16:15:11.664Z,2.80
2022-09-23T16:17:39.082Z,2.10
2022-09-23T16:20:07.034Z,2.20
2022-09-23T16:22:34.428Z,21.60
2022-09-23T16:25:01.896Z,26.83
2022-09-23T16:27:29.287Z,31.53
2022-09-23T16:29:58.026Z,5.00
2022-09-23T16:32:25.394Z,2.60
2022-09-23T16:34:52.795Z,2.60
2022-09-23T16:37:21.287Z,2.83
2022-09-23T16:39:49.316Z,21.40
2022-09-23T16:42:16.683Z,13.57
2022-09-23T16:44:44.080Z,17.70
2022-09-23T16:47:12.958Z,15.03
2022-09-23T16:49:40.324Z,11.70
2022-09-23T16:52:11.508Z,8.07
2022-09-23T16:54:39.791Z,5.10
2022-09-23T16:57:07.723Z,2.43
2022-09-23T16:59:49.112Z,2.10
2022-09-23T17:02:35.584Z,2.77
2022-09-23T17:05:03.044Z,2.77
2022-09-23T17:07:31.921Z,3.47
2022-09-23T17:09:59.385Z,2.70
2022-09-23T17:12:29.244Z,2.70
2022-09-23T17:14:56.752Z,2.10
2022-09-23T17:17:25.767Z,2.10
2022-09-23T17:19:53.146Z,2.10
2022-09-23T17:22:20.565Z,2.50
2022-09-23T17:24:48.003Z,2.40
2022-09-23T17:27:17.068Z,2.70
2022-09-23T17:29:45.006Z,2.30
2022-09-23T17:32:12.412Z,2.37
2022-09-23T17:34:43.960Z,2.43
2022-09-23T17:37:11.420Z,2.67
2022-09-23T17:39:38.925Z,4.30
2022-09-23T17:42:06.847Z,3.40
2022-09-23T17:44:35.315Z,3.30
2022-09-23T17:47:03.609Z,3.37
2022-09-23T17:49:35.340Z,3.17
2022-09-23T17:52:05.551Z,2.80
2022-09-23T17:54:32.933Z,2.70
2022-09-23T17:57:00.728Z,3.00
2022-09-23T17:59:28.158Z,3.00
2022-09-23T18:01:55.584Z,3.23
2022-09-23T18:04:23.075Z,2.67
2022-09-23T18:06:50.886Z,2.87
2022-09-23T18:09:20.167Z,2.80
2022-09-23T18:11:49.216Z,3.00
2022-09-23T18:14:17.181Z,3.10
2022-09-23T18:16:45.113Z,3.10
2022-09-23T18:19:13.871Z,3.40
2022-09-23T18:21:42.047Z,3.50
2022-09-23T18:24:31.300Z,3.60
2022-09-23T18:26:59.689Z,3.10
2022-09-23T18:29:27.264Z,3.10
2022-09-23T18:31:54.722Z,3.30
2022-09-23T18:34:22.207Z,3.20
2022-09-23T18:36:50.260Z,3.37
2022-09-23T18:39:17.631Z,3.30
2022-09-23T18:41:45.051Z,3.10
2022-09-23T18:44:13.763Z,3.73
2022-09-23T18:46:41.188Z,3.23
2022-09-23T18:49:27.206Z,3.20
2022-09-23T18:51:55.677Z,3.30
2022-09-23T18:54:23.254Z,3.53
2022-09-23T18:56:52.609Z,3.40
2022-09-23T18:59:24.652Z,3.33
2022-09-23T19:01:55.527Z,3.10
2022-09-23T19:04:23.818Z,3.27
2022-09-23T19:06:51.506Z,4.20
2022-09-23T19:09:19.664Z,4.60
2022-09-23T19:11:47.738Z,3.87
2022-09-23T19:14:15.498Z,3.40
2022-09-23T19:16:44.273Z,3.57
2022-09-23T19:19:11.825Z,3.20
2022-09-23T19:21:39.186Z,3.20
2022-09-23T19:24:08.045Z,3.43
2022-09-23T19:26:37.399Z,4.60
2022-09-23T19:29:05.745Z,4.40
2022-09-23T19:31:34.663Z,5.50
2022-09-23T19:34:05.980Z,10.17
2022-09-23T19:36:34.291Z,12.67
2022-09-23T19:39:03.232Z,16.30
2022-09-23T19:41:31.705Z,10.70
2022-09-23T19:44:03.226Z,5.53
2022-09-23T19:46:32.456Z,4.57
2022-09-23T19:49:00.238Z,4.20
2022-09-23T19:51:29.213Z,4.60
2022-09-23T19:53:56.831Z,4.97
2022-09-23T19:56:24.265Z,4.70
2022-09-23T19:58:55.582Z,5.20
2022-09-23T20:01:23.158Z,5.27
2022-09-23T20:03:50.684Z,4.70
2022-09-23T20:06:18.847Z,5.07
2022-09-23T20:08:47.961Z,5.03
2022-09-23T20:11:17.112Z,4.67
2022-09-23T20:13:47.094Z,4.60
2022-09-23T20:16:15.472Z,4.53
2022-09-23T20:18:43.141Z,5.37
2022-09-23T20:21:11.566Z,5.47
2022-09-23T20:23:39.041Z,4.77
2022-09-23T20:26:25.774Z,12.47
2022-09-23T20:28:53.314Z,6.67
2022-09-23T20:31:21.980Z,6.00
2022-09-23T20:33:50.812Z,5.50
2022-09-23T20:36:18.497Z,5.13
2022-09-23T20:38:45.886Z,4.80
2022-09-23T20:41:15.354Z,4.60
2022-09-23T20:43:43.749Z,4.50
2022-09-23T20:46:11.599Z,4.17
2022-09-23T20:48:40.639Z,4.70
2022-09-23T20:51:08.377Z,4.83
2022-09-23T20:53:35.780Z,4.50
2022-09-23T20:56:05.844Z,4.33
2022-09-23T20:58:36.450Z,4.40
2022-09-23T21:01:05.142Z,4.67
2022-09-23T21:03:33.744Z,4.90
2022-09-23T21:06:02.083Z,4.80
2022-09-23T21:08:29.464Z,5.10
2022-09-23T21:10:57.282Z,5.63
2022-09-23T21:13:24.738Z,6.90
2022-09-23T21:15:53.546Z,6.60
2022-09-23T21:18:22.651Z,6.70
2022-09-23T21:20:56.269Z,6.37
2022-09-23T21:23:27.358Z,6.40
2022-09-23T21:26:00.303Z,6.17
2022-09-23T21:28:30.104Z,6.80
2022-09-23T21:30:59.939Z,5.60
2022-09-23T21:33:27.399Z,5.70
2022-09-23T21:35:55.383Z,5.93
2022-09-23T21:38:23.052Z,6.33
2022-09-23T21:40:59.186Z,8.17
2022-09-23T21:43:26.854Z,7.73
2022-09-23T21:45:59.604Z,5.83
2022-09-23T21:48:29.671Z,5.33
2022-09-23T21:50:57.870Z,5.73
2022-09-23T21:53:25.745Z,5.13
2022-09-23T21:55:53.708Z,4.40
2022-09-23T21:58:22.472Z,4.30
2022-09-23T22:00:49.926Z,4.70
2022-09-23T22:03:17.339Z,4.43
2022-09-23T22:05:46.156Z,4.30
2022-09-23T22:08:13.616Z,4.50
2022-09-23T22:10:41.112Z,5.20
2022-09-23T22:13:12.750Z,5.90
2022-09-23T22:15:40.483Z,6.17
2022-09-23T22:18:08.245Z,5.50
2022-09-23T22:20:35.795Z,5.30
2022-09-23T22:23:04.529Z,4.43
2022-09-23T22:25:33.183Z,4.50
2022-09-23T22:28:18.142Z,4.40
2022-09-23T22:31:05.327Z,4.37
2022-09-23T22:33:32.784Z,4.80
2022-09-23T22:36:03.715Z,3.90
2022-09-23T22:38:32.844Z,4.37
2022-09-23T22:41:00.683Z,4.60
2022-09-23T22:43:28.158Z,4.47
2022-09-23T22:45:55.579Z,4.77
2022-09-23T22:48:22.976Z,4.43
2022-09-23T22:50:50.358Z,4.30
2022-09-23T22:53:17.742Z,4.10
2022-09-23T22:55:46.460Z,5.00
2022-09-23T22:58:31.069Z,5.53
2022-09-23T23:00:59.164Z,5.50
2022-09-23T23:03:27.361Z,5.10
2022-09-23T23:05:57.366Z,5.20
2022-09-23T23:08:24.788Z,5.03
2022-09-23T23:10:54.908Z,4.43
2022-09-23T23:13:22.594Z,4.23
2022-09-23T23:15:50.368Z,4.80
2022-09-23T23:18:17.812Z,4.80
2022-09-23T23:20:45.447Z,4.27
2022-09-23T23:23:12.981Z,5.00
2022-09-23T23:25:40.551Z,4.50
2022-09-23T23:28:09.416Z,4.87
2022-09-23T23:30:36.824Z,4.83
2022-09-23T23:33:04.239Z,4.47
2022-09-23T23:35:31.804Z,4.40
2022-09-23T23:37:59.539Z,4.23
2022-09-23T23:40:27.853Z,4.70
2022-09-23T23:42:55.448Z,5.70
2022-09-23T23:45:24.198Z,4.60
2022-09-23T23:47:51.560Z,4.37
2022-09-23T23:50:18.957Z,4.97
2022-09-23T23:52:46.446Z,4.53
2022-09-23T23:55:14.328Z,4.40
2022-09-23T23:57:42.409Z,4.77
